Rowena, Texas
Current Conditions -  °F | °C
As of 1:51 AM on Saturday 01 Nov 2014 (Local Time) from KSJT Reporting Station
Clear Clear  
Wind Chill: 36°   Ceiling: Unl
Heat Index: 41°   Visibility: 10mi
Dew Point: 30°   Wind: 8mph
Humidity: 65%   Direction: 50°NE
Pressure: 30.33"   Gusts: NA
Location:  31.65°N, 100.05°W
Report Text: KSJT 010651Z AUTO 05007KT 10SM CLR 05/M01 A3033 RMK AO2 SLP266 T00501011
Loading
Personal Weather Stations






























Interactive Weather Map New forecast layout! Learn more

10-Day Weather Forecast

Advertisements
Track Severe Weather on mobile